createdAt,value
2022-08-07T00:00:40.128Z,67.94
2022-08-07T00:03:09.201Z,67.89
2022-08-07T00:05:37.358Z,68.20
2022-08-07T00:08:05.332Z,67.80
2022-08-07T00:10:35.799Z,68.15
2022-08-07T00:13:24.084Z,68.15
2022-08-07T00:15:53.445Z,67.96
2022-08-07T00:18:25.101Z,68.33
2022-08-07T00:21:01.677Z,67.87
2022-08-07T00:23:30.774Z,68.23
2022-08-07T00:26:02.842Z,68.40
2022-08-07T00:28:45.648Z,68.18
2022-08-07T00:31:25.970Z,68.11
2022-08-07T00:34:09.445Z,68.38
2022-08-07T00:36:38.664Z,68.57
2022-08-07T00:39:12.829Z,68.71
2022-08-07T00:42:02.222Z,68.63
2022-08-07T00:44:38.334Z,68.42
2022-08-07T00:47:15.773Z,68.56
2022-08-07T00:50:21.216Z,68.47
2022-08-07T00:52:47.536Z,68.75
2022-08-07T00:55:17.390Z,68.68
2022-08-07T00:57:55.650Z,69.31
2022-08-07T01:00:23.648Z,69.04
2022-08-07T01:02:51.385Z,68.97
2022-08-07T01:05:19.923Z,68.93
2022-08-07T01:07:47.968Z,69.05
2022-08-07T01:10:18.312Z,69.18
2022-08-07T01:12:53.183Z,69.30
2022-08-07T01:15:35.664Z,69.01
2022-08-07T01:18:10.873Z,69.51
2022-08-07T01:20:57.524Z,68.90
2022-08-07T01:23:36.402Z,69.12
2022-08-07T01:26:11.876Z,69.01
2022-08-07T01:28:48.226Z,69.27
2022-08-07T01:31:20.987Z,69.31
2022-08-07T01:33:56.172Z,69.85
2022-08-07T01:36:33.441Z,69.56
2022-08-07T01:39:09.997Z,69.59
2022-08-07T01:42:07.094Z,69.70
2022-08-07T01:44:30.979Z,69.80
2022-08-07T01:47:01.160Z,69.40
2022-08-07T01:49:43.788Z,69.67
2022-08-07T01:52:12.544Z,69.61
2022-08-07T01:54:43.156Z,69.62
2022-08-07T01:57:24.292Z,69.91
2022-08-07T01:59:56.234Z,69.71
2022-08-07T02:02:32.737Z,69.96
2022-08-07T02:05:48.169Z,69.67
2022-08-07T02:08:08.381Z,69.89
2022-08-07T02:10:42.183Z,69.75
2022-08-07T02:13:10.673Z,69.69
2022-08-07T02:15:47.591Z,69.65
2022-08-07T02:18:20.825Z,70.04
2022-08-07T02:20:55.962Z,70.05
2022-08-07T02:23:25.998Z,69.84
2022-08-07T02:26:30.736Z,69.59
2022-08-07T02:28:42.043Z,69.76
2022-08-07T02:31:28.565Z,69.78
2022-08-07T02:34:03.125Z,69.78
2022-08-07T02:36:33.824Z,70.27
2022-08-07T02:39:16.344Z,69.84
2022-08-07T02:41:56.663Z,69.85
2022-08-07T02:44:27.679Z,69.79
2022-08-07T02:47:04.444Z,70.07
2022-08-07T02:49:58.349Z,70.22
2022-08-07T02:52:32.029Z,69.31
2022-08-07T02:55:03.699Z,69.07
2022-08-07T02:57:34.166Z,69.38
2022-08-07T03:00:10.367Z,67.49
2022-08-07T03:02:41.950Z,67.17
2022-08-07T03:05:24.632Z,67.52
2022-08-07T03:08:07.135Z,68.27
2022-08-07T03:10:46.457Z,68.45
2022-08-07T03:13:19.295Z,68.57
2022-08-07T03:15:58.305Z,69.12
2022-08-07T03:18:34.679Z,68.96
2022-08-07T03:21:05.142Z,69.09
2022-08-07T03:24:18.432Z,68.88
2022-08-07T03:26:28.849Z,69.33
2022-08-07T03:28:56.678Z,68.90
2022-08-07T03:31:42.070Z,69.06
2022-08-07T03:34:18.525Z,68.99
2022-08-07T03:36:51.770Z,69.09
2022-08-07T03:39:59.673Z,69.19
2022-08-07T03:42:08.430Z,68.88
2022-08-07T03:44:36.965Z,69.16
2022-08-07T03:47:13.949Z,69.11
2022-08-07T03:49:47.745Z,69.31
2022-08-07T03:52:26.807Z,69.31
2022-08-07T03:55:07.310Z,69.27
2022-08-07T03:58:34.343Z,69.70
2022-08-07T04:00:33.864Z,69.18
2022-08-07T04:03:06.215Z,69.31
2022-08-07T04:05:42.293Z,69.62
2022-08-07T04:08:18.272Z,69.66
2022-08-07T04:10:53.912Z,69.30
2022-08-07T04:13:22.882Z,69.53
2022-08-07T04:15:55.180Z,69.49
2022-08-07T04:18:56.347Z,69.54
2022-08-07T04:21:10.217Z,69.61
2022-08-07T04:23:43.348Z,69.63
2022-08-07T04:26:28.599Z,69.55
2022-08-07T04:28:58.508Z,69.73
2022-08-07T04:31:38.689Z,69.76
2022-08-07T04:34:16.914Z,69.65
2022-08-07T04:36:49.587Z,69.85
2022-08-07T04:39:19.977Z,70.00
2022-08-07T04:41:53.742Z,70.19
2022-08-07T04:44:21.312Z,70.17
2022-08-07T04:47:11.211Z,70.05
2022-08-07T04:50:33.147Z,70.09
2022-08-07T04:53:40.107Z,70.17
2022-08-07T04:58:10.971Z,70.12
2022-08-07T05:00:12.066Z,70.33
2022-08-07T05:02:43.538Z,69.86
2022-08-07T05:05:53.231Z,70.29
2022-08-07T05:08:08.436Z,70.21
2022-08-07T05:11:04.305Z,70.12
2022-08-07T05:14:52.563Z,70.18
2022-08-07T05:16:27.741Z,70.34
2022-08-07T05:18:57.703Z,70.48
2022-08-07T05:21:59.132Z,70.38
2022-08-07T05:24:17.191Z,70.52
2022-08-07T05:26:47.164Z,70.59
2022-08-07T05:29:16.780Z,70.74
2022-08-07T05:31:47.530Z,70.70
2022-08-07T05:34:26.309Z,70.40
2022-08-07T05:36:55.240Z,70.72
2022-08-07T05:40:16.465Z,70.45
2022-08-07T05:42:34.261Z,70.49
2022-08-07T05:45:25.838Z,70.77
2022-08-07T05:48:01.877Z,70.84
2022-08-07T05:50:39.639Z,70.47
2022-08-07T05:54:09.385Z,70.36
2022-08-07T05:56:02.975Z,70.44
2022-08-07T05:58:37.633Z,70.73
2022-08-07T06:01:10.955Z,70.73
2022-08-07T06:03:53.582Z,70.74
2022-08-07T06:06:29.613Z,70.45
2022-08-07T06:09:01.267Z,70.98
2022-08-07T06:11:33.941Z,70.48
2022-08-07T06:14:12.437Z,70.82
2022-08-07T06:16:56.279Z,71.10
2022-08-07T06:19:52.169Z,71.05
2022-08-07T06:22:24.027Z,70.72
2022-08-07T06:25:15.662Z,70.73
2022-08-07T06:28:00.323Z,70.59
2022-08-07T06:30:35.935Z,71.05
2022-08-07T06:33:16.129Z,70.75
2022-08-07T06:36:06.127Z,70.75
2022-08-07T06:38:35.137Z,70.85
2022-08-07T06:41:15.277Z,71.31
2022-08-07T06:43:46.427Z,70.88
2022-08-07T06:46:31.324Z,70.80
2022-08-07T06:49:04.730Z,70.18
2022-08-07T06:51:35.073Z,70.17
2022-08-07T06:55:29.986Z,70.54
2022-08-07T06:56:55.046Z,70.73
2022-08-07T07:00:12.709Z,70.52
2022-08-07T07:02:48.815Z,70.60
2022-08-07T07:06:05.537Z,69.78
2022-08-07T07:08:07.240Z,69.78
2022-08-07T07:10:37.598Z,69.88
2022-08-07T07:13:14.776Z,69.77
2022-08-07T07:15:51.382Z,69.83
2022-08-07T07:18:47.090Z,69.65
2022-08-07T07:21:22.378Z,69.69
2022-08-07T07:24:08.821Z,69.47
2022-08-07T07:26:39.669Z,69.61
2022-08-07T07:29:55.988Z,70.01
2022-08-07T07:32:06.180Z,69.62
2022-08-07T07:34:34.732Z,70.31
2022-08-07T07:37:14.364Z,70.13
2022-08-07T07:39:54.703Z,70.00
2022-08-07T07:42:32.499Z,70.29
2022-08-07T07:45:04.482Z,69.58
2022-08-07T07:47:42.719Z,69.75
2022-08-07T07:50:32.840Z,69.42
2022-08-07T07:53:20.519Z,69.99
2022-08-07T07:56:00.567Z,69.77
2022-08-07T07:58:37.057Z,69.70
2022-08-07T08:02:03.684Z,69.94
2022-08-07T08:04:06.333Z,69.92
2022-08-07T08:06:40.762Z,70.14
2022-08-07T08:09:22.955Z,70.42
2022-08-07T08:12:01.959Z,70.39
2022-08-07T08:14:34.275Z,70.65
2022-08-07T08:17:55.980Z,70.25
2022-08-07T08:20:17.644Z,70.38
2022-08-07T08:23:08.228Z,70.33
2022-08-07T08:25:56.146Z,70.27
2022-08-07T08:28:38.656Z,70.59
2022-08-07T08:31:14.819Z,70.20
2022-08-07T08:33:49.353Z,70.08
2022-08-07T08:36:17.975Z,70.38
2022-08-07T08:38:53.065Z,70.59
2022-08-07T08:41:53.613Z,70.70
2022-08-07T08:44:31.491Z,70.70
2022-08-07T08:47:54.622Z,70.70
2022-08-07T08:50:39.723Z,70.78
2022-08-07T08:53:44.414Z,70.73
2022-08-07T08:56:26.543Z,70.60
2022-08-07T08:59:16.431Z,70.62
2022-08-07T09:01:49.402Z,70.54
2022-08-07T09:04:36.550Z,70.41
2022-08-07T09:07:28.965Z,70.76
2022-08-07T09:10:23.969Z,70.89
2022-08-07T09:13:03.366Z,70.48
2022-08-07T09:16:20.055Z,70.80
2022-08-07T09:18:47.353Z,70.92
2022-08-07T09:24:28.034Z,70.57
2022-08-07T09:25:17.668Z,70.55
2022-08-07T09:30:00.792Z,71.08
2022-08-07T09:31:12.054Z,70.56
2022-08-07T09:34:01.749Z,70.83
2022-08-07T09:36:35.398Z,70.76
2022-08-07T09:39:54.474Z,70.65
2022-08-07T09:42:36.916Z,70.64
2022-08-07T09:46:47.753Z,70.70
2022-08-07T09:48:29.826Z,70.65
2022-08-07T09:52:09.203Z,70.63
2022-08-07T09:54:00.590Z,70.72
2022-08-07T09:56:57.320Z,70.66
2022-08-07T10:00:00.767Z,70.98
2022-08-07T10:02:57.467Z,70.92
2022-08-07T10:05:59.492Z,71.05
2022-08-07T10:08:41.622Z,70.90
2022-08-07T10:12:00.651Z,70.63
2022-08-07T10:14:32.674Z,70.67
2022-08-07T10:17:21.116Z,70.91
2022-08-07T10:20:15.828Z,71.11
2022-08-07T10:23:07.818Z,70.91
2022-08-07T10:26:07.603Z,71.18
2022-08-07T10:28:54.728Z,70.73
2022-08-07T10:31:47.365Z,71.22
2022-08-07T10:34:32.535Z,70.94
2022-08-07T10:37:48.591Z,71.31
2022-08-07T10:40:21.012Z,70.93
2022-08-07T10:43:00.364Z,70.99
2022-08-07T10:45:57.178Z,70.97
2022-08-07T10:48:40.141Z,71.25
2022-08-07T10:51:39.154Z,70.98
2022-08-07T10:54:17.305Z,71.23
2022-08-07T10:57:02.639Z,71.16
2022-08-07T11:00:08.789Z,71.25
2022-08-07T11:02:39.959Z,71.13
2022-08-07T11:05:35.818Z,71.11
2022-08-07T11:08:38.986Z,71.09
2022-08-07T11:11:14.207Z,71.02
2022-08-07T11:14:45.197Z,71.21
2022-08-07T11:17:01.840Z,71.28
2022-08-07T11:19:37.535Z,71.52
2022-08-07T11:22:26.554Z,71.41
2022-08-07T11:25:16.986Z,71.12
2022-08-07T11:28:02.585Z,71.08
2022-08-07T11:30:45.924Z,71.46
2022-08-07T11:33:53.809Z,71.33
2022-08-07T11:37:00.274Z,71.32
2022-08-07T11:40:00.473Z,71.38
2022-08-07T11:42:47.426Z,71.32
2022-08-07T11:45:53.130Z,71.19
2022-08-07T11:49:51.068Z,71.59
2022-08-07T11:52:04.087Z,71.27
2022-08-07T11:54:54.556Z,71.56
2022-08-07T11:58:00.770Z,71.23
2022-08-07T12:00:40.337Z,71.53
2022-08-07T12:03:45.719Z,71.68
2022-08-07T12:06:37.949Z,71.47
2022-08-07T12:09:22.855Z,71.24
2022-08-07T12:12:09.414Z,71.63
2022-08-07T12:14:56.209Z,71.60
2022-08-07T12:17:58.926Z,71.22
2022-08-07T12:20:44.302Z,71.42
2022-08-07T12:24:05.106Z,71.76
2022-08-07T12:26:29.306Z,71.58
2022-08-07T12:29:09.122Z,71.56
2022-08-07T12:31:52.770Z,71.63
2022-08-07T12:34:33.935Z,71.59
2022-08-07T12:37:01.400Z,71.74
2022-08-07T12:39:43.933Z,71.37
2022-08-07T12:42:27.562Z,71.38
2022-08-07T12:44:58.248Z,71.47
2022-08-07T12:47:44.003Z,71.60
2022-08-07T12:50:38.864Z,71.84
2022-08-07T12:53:17.745Z,71.59
2022-08-07T12:56:04.234Z,72.04
2022-08-07T12:58:39.463Z,71.74
2022-08-07T13:01:27.950Z,71.72
2022-08-07T13:04:13.628Z,71.68
2022-08-07T13:07:01.144Z,71.62
2022-08-07T13:10:37.364Z,71.73
2022-08-07T13:13:47.007Z,71.88
2022-08-07T13:16:17.243Z,71.54
2022-08-07T13:19:02.004Z,71.64
2022-08-07T13:22:19.439Z,71.48
2022-08-07T13:25:15.400Z,71.54
2022-08-07T13:28:11.104Z,71.75
2022-08-07T13:30:48.973Z,71.33
2022-08-07T13:34:31.025Z,71.58
2022-08-07T13:36:51.404Z,71.66
2022-08-07T13:40:33.806Z,71.64
2022-08-07T13:42:27.783Z,71.76
2022-08-07T13:46:06.835Z,71.72
2022-08-07T13:48:05.577Z,71.79
2022-08-07T13:50:35.355Z,71.49
2022-08-07T13:53:19.410Z,71.67
2022-08-07T13:55:54.760Z,71.48
2022-08-07T13:58:56.169Z,71.50
2022-08-07T14:01:24.899Z,71.41
2022-08-07T14:04:07.034Z,71.58
2022-08-07T14:06:38.722Z,71.54
2022-08-07T14:09:07.334Z,71.41
2022-08-07T14:11:53.920Z,71.69
2022-08-07T14:14:48.091Z,71.45
2022-08-07T14:18:13.046Z,71.41
2022-08-07T14:20:42.220Z,71.21
2022-08-07T14:23:12.585Z,71.48
2022-08-07T14:25:48.221Z,71.47
2022-08-07T14:28:15.735Z,71.60
2022-08-07T14:30:47.405Z,71.49
2022-08-07T14:33:22.230Z,71.66
2022-08-07T14:35:55.579Z,71.74
2022-08-07T14:38:30.990Z,71.76
2022-08-07T14:41:03.902Z,71.65
2022-08-07T14:49:17.452Z,71.23
2022-08-07T14:52:03.882Z,71.38
2022-08-07T14:54:35.918Z,71.25
2022-08-07T14:57:18.683Z,71.24
2022-08-07T15:02:39.034Z,71.39
2022-08-07T15:05:19.716Z,71.21
2022-08-07T15:07:52.038Z,71.71
2022-08-07T15:10:26.290Z,71.55
2022-08-07T15:12:58.446Z,71.46
2022-08-07T15:15:40.582Z,71.60
2022-08-07T15:18:34.148Z,71.38
2022-08-07T15:21:08.328Z,71.45
2022-08-07T15:25:14.312Z,71.48
2022-08-07T15:26:41.036Z,71.69
2022-08-07T15:32:02.207Z,71.65
2022-08-07T15:38:04.911Z,71.61
2022-08-07T15:43:53.297Z,71.69
2022-08-07T15:49:14.477Z,71.28
2022-08-07T15:54:26.569Z,71.30
2022-08-07T15:56:54.067Z,71.59
2022-08-07T15:59:39.569Z,71.31
2022-08-07T16:02:09.947Z,71.15
2022-08-07T16:04:43.996Z,71.47
2022-08-07T16:08:33.454Z,71.20
2022-08-07T16:10:21.764Z,71.21
2022-08-07T16:13:05.683Z,71.39
2022-08-07T16:16:42.974Z,71.27
2022-08-07T16:19:17.879Z,71.47
2022-08-07T16:22:05.545Z,71.36
2022-08-07T16:24:52.612Z,71.67
2022-08-07T16:27:41.691Z,71.66
2022-08-07T16:30:30.781Z,71.15
2022-08-07T16:34:01.626Z,71.23
2022-08-07T16:37:02.490Z,71.29
2022-08-07T16:39:54.704Z,71.26
2022-08-07T16:42:38.839Z,71.05
2022-08-07T16:46:34.710Z,71.48
2022-08-07T16:48:37.636Z,71.20
2022-08-07T16:51:57.571Z,71.07
2022-08-07T16:54:55.023Z,70.89
2022-08-07T16:58:01.884Z,70.89
2022-08-07T17:01:01.404Z,71.17
2022-08-07T17:03:58.175Z,71.10
2022-08-07T17:07:02.904Z,71.43
2022-08-07T17:10:06.561Z,71.09
2022-08-07T17:13:01.831Z,71.07
2022-08-07T17:15:44.328Z,71.16
2022-08-07T17:18:32.317Z,71.30
2022-08-07T17:21:00.989Z,71.01
2022-08-07T17:23:55.846Z,71.34
2022-08-07T17:26:29.848Z,71.07
2022-08-07T17:28:57.777Z,70.87
2022-08-07T17:31:34.546Z,70.96
2022-08-07T17:34:57.090Z,70.93
2022-08-07T17:38:09.846Z,70.89
2022-08-07T17:40:30.203Z,70.69
2022-08-07T17:43:15.017Z,71.01
2022-08-07T17:46:18.332Z,70.95
2022-08-07T17:49:09.106Z,71.03
2022-08-07T17:52:13.997Z,70.98
2022-08-07T17:54:55.321Z,71.44
2022-08-07T17:57:58.891Z,71.07
2022-08-07T18:00:33.639Z,71.22
2022-08-07T18:03:18.984Z,70.91
2022-08-07T18:06:01.958Z,71.42
2022-08-07T18:09:00.774Z,71.27
2022-08-07T18:12:20.000Z,71.05
2022-08-07T18:14:49.577Z,71.32
2022-08-07T18:18:44.806Z,71.10
2022-08-07T18:21:10.310Z,71.43
2022-08-07T18:24:07.579Z,71.54
2022-08-07T18:26:40.586Z,71.25
2022-08-07T18:30:05.885Z,70.99
2022-08-07T18:32:32.953Z,71.41
2022-08-07T18:35:03.097Z,71.05
2022-08-07T18:38:57.755Z,71.50
2022-08-07T18:40:54.866Z,71.35
2022-08-07T18:43:57.795Z,71.10
2022-08-07T18:46:33.001Z,71.30
2022-08-07T18:50:31.038Z,71.30
2022-08-07T18:52:54.434Z,71.32
2022-08-07T18:55:43.212Z,71.06
2022-08-07T18:58:25.918Z,71.40
2022-08-07T19:01:05.037Z,71.20
2022-08-07T19:03:49.741Z,71.21
2022-08-07T19:06:54.176Z,71.33
2022-08-07T19:09:56.198Z,71.17
2022-08-07T19:12:53.396Z,71.26
2022-08-07T19:16:05.233Z,71.17
2022-08-07T19:18:45.006Z,71.51
2022-08-07T19:21:58.515Z,71.13
2022-08-07T19:24:44.377Z,70.99
2022-08-07T19:28:29.951Z,70.96
2022-08-07T19:31:06.207Z,71.28
2022-08-07T19:32:59.357Z,71.02
2022-08-07T19:35:33.284Z,70.97
2022-08-07T19:38:03.746Z,71.43
2022-08-07T19:40:49.587Z,71.11
2022-08-07T19:43:48.815Z,71.06
2022-08-07T19:46:19.241Z,71.21
2022-08-07T19:48:54.186Z,71.29
2022-08-07T19:51:51.394Z,71.15
2022-08-07T19:54:33.414Z,71.45
2022-08-07T19:58:02.616Z,71.37
2022-08-07T19:59:49.926Z,71.09
2022-08-07T20:02:24.589Z,71.00
2022-08-07T20:04:56.078Z,71.20
2022-08-07T20:07:47.363Z,71.59
2022-08-07T20:10:54.459Z,71.15
2022-08-07T20:13:42.342Z,71.06
2022-08-07T20:16:15.961Z,71.37
2022-08-07T20:18:58.299Z,71.00
2022-08-07T20:21:29.209Z,71.12
2022-08-07T20:24:13.725Z,71.38
2022-08-07T20:26:46.120Z,71.12
2022-08-07T20:29:49.187Z,71.09
2022-08-07T20:32:11.262Z,71.35
2022-08-07T20:34:51.554Z,71.07
2022-08-07T20:37:36.881Z,71.08
2022-08-07T20:40:31.183Z,70.89
2022-08-07T20:42:56.652Z,70.97
2022-08-07T20:46:24.148Z,71.28
2022-08-07T20:48:11.859Z,71.17
2022-08-07T20:50:57.897Z,70.80
2022-08-07T20:54:02.048Z,71.29
2022-08-07T20:56:12.824Z,71.45
2022-08-07T20:58:44.437Z,70.80
2022-08-07T21:01:19.636Z,71.30
2022-08-07T21:04:18.599Z,70.69
2022-08-07T21:06:46.092Z,71.02
2022-08-07T21:09:24.509Z,71.20
2022-08-07T21:11:57.577Z,70.77
2022-08-07T21:14:32.494Z,70.99
2022-08-07T21:18:01.095Z,71.08
2022-08-07T21:20:05.088Z,70.58
2022-08-07T21:22:38.796Z,70.96
2022-08-07T21:25:44.255Z,70.82
2022-08-07T21:28:49.968Z,71.08
2022-08-07T21:32:03.676Z,70.69
2022-08-07T21:34:26.643Z,70.78
2022-08-07T21:37:00.641Z,70.77
2022-08-07T21:39:45.090Z,71.18
2022-08-07T21:46:08.868Z,71.02
2022-08-07T21:48:26.803Z,71.00
2022-08-07T21:51:32.344Z,71.04
2022-08-07T21:54:21.225Z,70.66
2022-08-07T21:57:03.177Z,70.83
2022-08-07T22:00:04.461Z,70.72
2022-08-07T22:02:52.895Z,71.02
2022-08-07T22:05:45.572Z,70.86
2022-08-07T22:08:10.747Z,70.83
2022-08-07T22:10:42.276Z,70.97
2022-08-07T22:13:13.621Z,70.98
2022-08-07T22:16:45.429Z,70.71
2022-08-07T22:19:05.269Z,70.71
2022-08-07T22:22:01.822Z,70.97
2022-08-07T22:24:37.793Z,70.55
2022-08-07T22:27:34.090Z,70.95
2022-08-07T22:30:21.493Z,71.00
2022-08-07T22:33:07.029Z,71.04
2022-08-07T22:35:49.068Z,70.89
2022-08-07T22:38:48.183Z,70.91
2022-08-07T22:42:03.032Z,70.91
2022-08-07T22:44:25.845Z,70.96
2022-08-07T22:47:25.539Z,70.99
2022-08-07T22:50:05.252Z,71.18
2022-08-07T22:52:45.855Z,70.96
2022-08-07T22:55:52.131Z,70.98
2022-08-07T22:58:31.663Z,70.97
2022-08-07T23:01:02.024Z,70.91
2022-08-07T23:03:58.827Z,70.85
2022-08-07T23:07:25.891Z,70.49
2022-08-07T23:10:38.403Z,70.25
2022-08-07T23:14:10.446Z,70.16
2022-08-07T23:16:54.791Z,70.00
2022-08-07T23:20:02.933Z,69.93
2022-08-07T23:22:48.677Z,69.52
2022-08-07T23:25:41.554Z,69.60
2022-08-07T23:28:22.924Z,69.52
2022-08-07T23:32:49.089Z,69.14
2022-08-07T23:34:41.086Z,68.65
2022-08-07T23:37:29.391Z,68.69
2022-08-07T23:40:07.427Z,68.82
2022-08-07T23:43:16.663Z,68.82
2022-08-07T23:46:01.596Z,68.61
2022-08-07T23:49:23.054Z,68.56
2022-08-07T23:52:59.513Z,68.40
2022-08-07T23:55:09.539Z,68.47
2022-08-07T23:57:40.916Z,68.87
